sensor_id;sensor_type;location;lat;lon;timestamp;P1;durP1;ratioP1;P2;durP2;ratioP2
1679;SDS011;838;51.794;12.258;2023-08-24T00:00:11;5.10;;;3.90;;
1679;SDS011;838;51.794;12.258;2023-08-24T00:02:37;7.30;;;4.20;;
1679;SDS011;838;51.794;12.258;2023-08-24T00:05:03;5.00;;;3.40;;
1679;SDS011;838;51.794;12.258;2023-08-24T00:07:29;4.67;;;3.77;;
1679;SDS011;838;51.794;12.258;2023-08-24T00:09:55;5.53;;;3.73;;
1679;SDS011;838;51.794;12.258;2023-08-24T00:12:21;5.63;;;4.00;;
1679;SDS011;838;51.794;12.258;2023-08-24T00:14:46;3.90;;;3.30;;
1679;SDS011;838;51.794;12.258;2023-08-24T00:17:12;6.20;;;3.57;;
1679;SDS011;838;51.794;12.258;2023-08-24T00:19:38;5.17;;;3.93;;
1679;SDS011;838;51.794;12.258;2023-08-24T00:22:03;7.10;;;3.83;;
1679;SDS011;838;51.794;12.258;2023-08-24T00:24:29;5.50;;;4.10;;
1679;SDS011;838;51.794;12.258;2023-08-24T00:26:55;5.43;;;4.37;;
1679;SDS011;838;51.794;12.258;2023-08-24T00:29:20;6.67;;;3.67;;
1679;SDS011;838;51.794;12.258;2023-08-24T00:31:47;6.60;;;4.50;;
1679;SDS011;838;51.794;12.258;2023-08-24T00:34:13;5.50;;;4.00;;
1679;SDS011;838;51.794;12.258;2023-08-24T00:36:38;6.27;;;4.73;;
1679;SDS011;838;51.794;12.258;2023-08-24T00:39:05;5.63;;;4.37;;
1679;SDS011;838;51.794;12.258;2023-08-24T00:41:31;6.87;;;4.67;;
1679;SDS011;838;51.794;12.258;2023-08-24T00:43:57;5.23;;;4.00;;
1679;SDS011;838;51.794;12.258;2023-08-24T00:46:23;5.40;;;4.37;;
1679;SDS011;838;51.794;12.258;2023-08-24T00:48:52;5.10;;;3.80;;
1679;SDS011;838;51.794;12.258;2023-08-24T00:51:22;5.90;;;4.20;;
1679;SDS011;838;51.794;12.258;2023-08-24T00:53:48;9.33;;;4.13;;
1679;SDS011;838;51.794;12.258;2023-08-24T00:56:15;5.50;;;4.03;;
1679;SDS011;838;51.794;12.258;2023-08-24T00:58:41;5.27;;;3.90;;
1679;SDS011;838;51.794;12.258;2023-08-24T01:01:07;6.50;;;4.27;;
1679;SDS011;838;51.794;12.258;2023-08-24T01:03:34;6.97;;;4.10;;
1679;SDS011;838;51.794;12.258;2023-08-24T01:05:59;5.20;;;4.20;;
1679;SDS011;838;51.794;12.258;2023-08-24T01:08:25;5.07;;;4.10;;
1679;SDS011;838;51.794;12.258;2023-08-24T01:13:38;5.30;;;4.07;;
1679;SDS011;838;51.794;12.258;2023-08-24T01:16:24;6.70;;;4.50;;
1679;SDS011;838;51.794;12.258;2023-08-24T01:18:54;6.13;;;4.60;;
1679;SDS011;838;51.794;12.258;2023-08-24T01:21:21;6.13;;;3.97;;
1679;SDS011;838;51.794;12.258;2023-08-24T01:26:16;4.90;;;4.20;;
1679;SDS011;838;51.794;12.258;2023-08-24T01:28:43;5.23;;;4.23;;
1679;SDS011;838;51.794;12.258;2023-08-24T01:31:11;5.27;;;4.00;;
1679;SDS011;838;51.794;12.258;2023-08-24T01:33:42;4.23;;;3.50;;
1679;SDS011;838;51.794;12.258;2023-08-24T01:36:09;5.47;;;3.80;;
1679;SDS011;838;51.794;12.258;2023-08-24T01:38:37;4.57;;;3.50;;
1679;SDS011;838;51.794;12.258;2023-08-24T01:43:35;4.37;;;3.80;;
1679;SDS011;838;51.794;12.258;2023-08-24T01:46:03;5.40;;;3.97;;
1679;SDS011;838;51.794;12.258;2023-08-24T01:48:30;5.47;;;4.20;;
1679;SDS011;838;51.794;12.258;2023-08-24T01:50:57;5.30;;;4.30;;
1679;SDS011;838;51.794;12.258;2023-08-24T01:53:23;5.73;;;4.10;;
1679;SDS011;838;51.794;12.258;2023-08-24T01:55:50;4.93;;;4.43;;
1679;SDS011;838;51.794;12.258;2023-08-24T01:58:15;7.17;;;4.27;;
1679;SDS011;838;51.794;12.258;2023-08-24T02:00:41;10.93;;;4.90;;
1679;SDS011;838;51.794;12.258;2023-08-24T02:03:07;6.00;;;4.13;;
1679;SDS011;838;51.794;12.258;2023-08-24T02:05:33;4.50;;;3.80;;
1679;SDS011;838;51.794;12.258;2023-08-24T02:07:58;5.90;;;4.67;;
1679;SDS011;838;51.794;12.258;2023-08-24T02:10:25;5.30;;;4.20;;
1679;SDS011;838;51.794;12.258;2023-08-24T02:12:51;4.63;;;4.00;;
1679;SDS011;838;51.794;12.258;2023-08-24T02:15:17;4.60;;;3.70;;
1679;SDS011;838;51.794;12.258;2023-08-24T02:17:43;5.70;;;4.53;;
1679;SDS011;838;51.794;12.258;2023-08-24T02:20:10;5.43;;;4.20;;
1679;SDS011;838;51.794;12.258;2023-08-24T02:22:36;5.67;;;4.27;;
1679;SDS011;838;51.794;12.258;2023-08-24T02:25:03;4.97;;;4.00;;
1679;SDS011;838;51.794;12.258;2023-08-24T02:27:30;8.43;;;4.23;;
1679;SDS011;838;51.794;12.258;2023-08-24T02:29:56;4.87;;;4.20;;
1679;SDS011;838;51.794;12.258;2023-08-24T02:32:22;11.60;;;4.00;;
1679;SDS011;838;51.794;12.258;2023-08-24T02:34:47;4.77;;;3.27;;
1679;SDS011;838;51.794;12.258;2023-08-24T02:37:13;4.80;;;3.70;;
1679;SDS011;838;51.794;12.258;2023-08-24T02:39:39;5.20;;;3.87;;
1679;SDS011;838;51.794;12.258;2023-08-24T02:42:05;5.70;;;3.67;;
1679;SDS011;838;51.794;12.258;2023-08-24T02:44:30;5.00;;;3.40;;
1679;SDS011;838;51.794;12.258;2023-08-24T02:46:56;5.20;;;4.40;;
1679;SDS011;838;51.794;12.258;2023-08-24T02:49:22;6.30;;;5.10;;
1679;SDS011;838;51.794;12.258;2023-08-24T02:51:48;6.80;;;4.63;;
1679;SDS011;838;51.794;12.258;2023-08-24T02:54:14;8.80;;;7.13;;
1679;SDS011;838;51.794;12.258;2023-08-24T02:56:40;9.93;;;7.93;;
1679;SDS011;838;51.794;12.258;2023-08-24T02:59:06;11.10;;;7.90;;
1679;SDS011;838;51.794;12.258;2023-08-24T03:01:31;7.60;;;6.37;;
1679;SDS011;838;51.794;12.258;2023-08-24T03:03:57;7.20;;;5.70;;
1679;SDS011;838;51.794;12.258;2023-08-24T03:06:23;7.67;;;6.20;;
1679;SDS011;838;51.794;12.258;2023-08-24T03:08:49;6.80;;;5.30;;
1679;SDS011;838;51.794;12.258;2023-08-24T03:11:15;7.47;;;5.50;;
1679;SDS011;838;51.794;12.258;2023-08-24T03:13:40;6.20;;;5.17;;
1679;SDS011;838;51.794;12.258;2023-08-24T03:16:06;6.77;;;5.10;;
1679;SDS011;838;51.794;12.258;2023-08-24T03:18:33;7.17;;;4.47;;
1679;SDS011;838;51.794;12.258;2023-08-24T03:20:59;5.43;;;4.53;;
1679;SDS011;838;51.794;12.258;2023-08-24T03:23:25;5.70;;;4.43;;
1679;SDS011;838;51.794;12.258;2023-08-24T03:25:52;6.43;;;5.00;;
1679;SDS011;838;51.794;12.258;2023-08-24T03:28:18;5.60;;;4.67;;
1679;SDS011;838;51.794;12.258;2023-08-24T03:30:47;6.47;;;5.23;;
1679;SDS011;838;51.794;12.258;2023-08-24T03:33:15;5.70;;;4.80;;
1679;SDS011;838;51.794;12.258;2023-08-24T03:35:41;5.97;;;5.20;;
1679;SDS011;838;51.794;12.258;2023-08-24T03:38:07;6.17;;;4.70;;
1679;SDS011;838;51.794;12.258;2023-08-24T03:40:33;5.93;;;4.87;;
1679;SDS011;838;51.794;12.258;2023-08-24T03:43:00;6.90;;;4.50;;
1679;SDS011;838;51.794;12.258;2023-08-24T03:45:27;6.10;;;5.50;;
1679;SDS011;838;51.794;12.258;2023-08-24T03:47:52;6.33;;;4.33;;
1679;SDS011;838;51.794;12.258;2023-08-24T03:50:18;9.50;;;5.03;;
1679;SDS011;838;51.794;12.258;2023-08-24T03:52:44;5.73;;;4.70;;
1679;SDS011;838;51.794;12.258;2023-08-24T03:55:10;6.23;;;4.50;;
1679;SDS011;838;51.794;12.258;2023-08-24T03:57:35;6.00;;;4.97;;
1679;SDS011;838;51.794;12.258;2023-08-24T04:00:03;5.27;;;4.30;;
1679;SDS011;838;51.794;12.258;2023-08-24T04:02:32;5.70;;;4.50;;
1679;SDS011;838;51.794;12.258;2023-08-24T04:04:57;6.83;;;4.20;;
1679;SDS011;838;51.794;12.258;2023-08-24T04:07:23;5.20;;;4.00;;
1679;SDS011;838;51.794;12.258;2023-08-24T04:09:49;7.50;;;3.83;;
1679;SDS011;838;51.794;12.258;2023-08-24T04:12:15;4.90;;;4.40;;
1679;SDS011;838;51.794;12.258;2023-08-24T04:14:40;5.20;;;4.40;;
1679;SDS011;838;51.794;12.258;2023-08-24T04:17:06;4.93;;;4.07;;
1679;SDS011;838;51.794;12.258;2023-08-24T04:19:32;5.50;;;4.07;;
1679;SDS011;838;51.794;12.258;2023-08-24T04:21:57;5.60;;;4.10;;
1679;SDS011;838;51.794;12.258;2023-08-24T04:24:23;6.00;;;3.97;;
1679;SDS011;838;51.794;12.258;2023-08-24T04:26:50;5.70;;;4.40;;
1679;SDS011;838;51.794;12.258;2023-08-24T04:29:16;6.90;;;4.10;;
1679;SDS011;838;51.794;12.258;2023-08-24T04:31:42;5.07;;;3.67;;
1679;SDS011;838;51.794;12.258;2023-08-24T04:34:08;6.47;;;3.70;;
1679;SDS011;838;51.794;12.258;2023-08-24T04:36:34;5.37;;;3.77;;
1679;SDS011;838;51.794;12.258;2023-08-24T04:39:00;4.73;;;3.67;;
1679;SDS011;838;51.794;12.258;2023-08-24T04:41:27;4.20;;;3.30;;
1679;SDS011;838;51.794;12.258;2023-08-24T04:43:53;4.43;;;3.07;;
1679;SDS011;838;51.794;12.258;2023-08-24T04:46:20;6.83;;;3.97;;
1679;SDS011;838;51.794;12.258;2023-08-24T04:48:45;5.23;;;3.40;;
1679;SDS011;838;51.794;12.258;2023-08-24T04:51:11;5.10;;;3.80;;
1679;SDS011;838;51.794;12.258;2023-08-24T04:53:37;9.20;;;4.23;;
1679;SDS011;838;51.794;12.258;2023-08-24T04:56:03;5.60;;;3.90;;
1679;SDS011;838;51.794;12.258;2023-08-24T04:58:29;5.27;;;4.33;;
1679;SDS011;838;51.794;12.258;2023-08-24T05:00:54;5.30;;;3.83;;
1679;SDS011;838;51.794;12.258;2023-08-24T05:03:22;5.07;;;3.57;;
1679;SDS011;838;51.794;12.258;2023-08-24T05:05:48;5.00;;;3.50;;
1679;SDS011;838;51.794;12.258;2023-08-24T05:08:15;5.73;;;3.67;;
1679;SDS011;838;51.794;12.258;2023-08-24T05:10:41;5.27;;;4.30;;
1679;SDS011;838;51.794;12.258;2023-08-24T05:13:06;5.30;;;4.70;;
1679;SDS011;838;51.794;12.258;2023-08-24T05:15:32;6.23;;;4.30;;
1679;SDS011;838;51.794;12.258;2023-08-24T05:17:58;6.90;;;4.90;;
1679;SDS011;838;51.794;12.258;2023-08-24T05:20:27;5.90;;;4.17;;
1679;SDS011;838;51.794;12.258;2023-08-24T05:22:53;6.50;;;4.87;;
1679;SDS011;838;51.794;12.258;2023-08-24T05:25:23;5.87;;;4.77;;
1679;SDS011;838;51.794;12.258;2023-08-24T05:27:49;8.30;;;4.43;;
1679;SDS011;838;51.794;12.258;2023-08-24T05:30:15;5.50;;;4.47;;
1679;SDS011;838;51.794;12.258;2023-08-24T05:32:40;4.70;;;4.00;;
1679;SDS011;838;51.794;12.258;2023-08-24T05:35:06;6.77;;;4.40;;
1679;SDS011;838;51.794;12.258;2023-08-24T05:37:33;5.50;;;4.30;;
1679;SDS011;838;51.794;12.258;2023-08-24T05:40:00;5.73;;;4.53;;
1679;SDS011;838;51.794;12.258;2023-08-24T05:42:26;6.20;;;4.40;;
1679;SDS011;838;51.794;12.258;2023-08-24T05:44:52;11.43;;;5.57;;
1679;SDS011;838;51.794;12.258;2023-08-24T05:47:18;6.67;;;5.00;;
1679;SDS011;838;51.794;12.258;2023-08-24T05:49:44;7.13;;;5.73;;
1679;SDS011;838;51.794;12.258;2023-08-24T05:52:10;5.50;;;5.00;;
1679;SDS011;838;51.794;12.258;2023-08-24T05:54:36;8.90;;;5.73;;
1679;SDS011;838;51.794;12.258;2023-08-24T05:57:03;6.53;;;5.73;;
1679;SDS011;838;51.794;12.258;2023-08-24T05:59:29;6.90;;;5.73;;
1679;SDS011;838;51.794;12.258;2023-08-24T06:01:55;8.10;;;6.37;;
1679;SDS011;838;51.794;12.258;2023-08-24T06:04:21;6.70;;;5.13;;
1679;SDS011;838;51.794;12.258;2023-08-24T06:06:46;6.50;;;5.80;;
1679;SDS011;838;51.794;12.258;2023-08-24T06:09:12;5.40;;;4.90;;
1679;SDS011;838;51.794;12.258;2023-08-24T06:11:40;5.40;;;3.70;;
1679;SDS011;838;51.794;12.258;2023-08-24T06:14:06;6.10;;;4.57;;
1679;SDS011;838;51.794;12.258;2023-08-24T06:16:32;6.77;;;4.70;;
1679;SDS011;838;51.794;12.258;2023-08-24T06:18:58;4.97;;;4.10;;
1679;SDS011;838;51.794;12.258;2023-08-24T06:21:23;4.83;;;4.23;;
1679;SDS011;838;51.794;12.258;2023-08-24T06:23:49;5.23;;;4.20;;
1679;SDS011;838;51.794;12.258;2023-08-24T06:26:15;5.53;;;4.80;;
1679;SDS011;838;51.794;12.258;2023-08-24T06:28:40;5.33;;;4.60;;
1679;SDS011;838;51.794;12.258;2023-08-24T06:31:06;6.43;;;5.33;;
1679;SDS011;838;51.794;12.258;2023-08-24T06:33:35;6.47;;;5.23;;
1679;SDS011;838;51.794;12.258;2023-08-24T06:36:02;8.60;;;5.23;;
1679;SDS011;838;51.794;12.258;2023-08-24T06:38:30;8.70;;;5.37;;
1679;SDS011;838;51.794;12.258;2023-08-24T06:40:59;6.80;;;5.70;;
1679;SDS011;838;51.794;12.258;2023-08-24T06:43:26;8.10;;;5.40;;
1679;SDS011;838;51.794;12.258;2023-08-24T06:45:52;8.83;;;5.70;;
1679;SDS011;838;51.794;12.258;2023-08-24T06:48:19;6.80;;;5.77;;
1679;SDS011;838;51.794;12.258;2023-08-24T06:50:45;6.50;;;5.60;;
1679;SDS011;838;51.794;12.258;2023-08-24T06:53:10;6.60;;;5.70;;
1679;SDS011;838;51.794;12.258;2023-08-24T06:55:36;7.40;;;5.97;;
1679;SDS011;838;51.794;12.258;2023-08-24T06:58:02;6.37;;;5.03;;
1679;SDS011;838;51.794;12.258;2023-08-24T07:00:30;7.10;;;5.80;;
1679;SDS011;838;51.794;12.258;2023-08-24T07:02:56;5.63;;;5.07;;
1679;SDS011;838;51.794;12.258;2023-08-24T07:05:25;5.50;;;4.10;;
1679;SDS011;838;51.794;12.258;2023-08-24T07:07:50;7.00;;;4.77;;
1679;SDS011;838;51.794;12.258;2023-08-24T07:10:17;6.03;;;4.30;;
1679;SDS011;838;51.794;12.258;2023-08-24T07:12:42;6.23;;;4.53;;
1679;SDS011;838;51.794;12.258;2023-08-24T07:15:10;4.77;;;3.87;;
1679;SDS011;838;51.794;12.258;2023-08-24T07:17:36;5.37;;;4.13;;
1679;SDS011;838;51.794;12.258;2023-08-24T07:20:02;5.03;;;3.77;;
1679;SDS011;838;51.794;12.258;2023-08-24T07:22:33;5.17;;;4.20;;
1679;SDS011;838;51.794;12.258;2023-08-24T07:25:00;6.00;;;4.60;;
1679;SDS011;838;51.794;12.258;2023-08-24T07:27:30;10.40;;;3.77;;
1679;SDS011;838;51.794;12.258;2023-08-24T07:29:56;4.63;;;3.23;;
1679;SDS011;838;51.794;12.258;2023-08-24T07:32:22;4.40;;;3.40;;
1679;SDS011;838;51.794;12.258;2023-08-24T07:34:49;6.70;;;3.40;;
1679;SDS011;838;51.794;12.258;2023-08-24T07:37:14;5.07;;;3.17;;
1679;SDS011;838;51.794;12.258;2023-08-24T07:39:40;5.60;;;3.67;;
1679;SDS011;838;51.794;12.258;2023-08-24T07:42:06;4.10;;;3.00;;
1679;SDS011;838;51.794;12.258;2023-08-24T07:44:31;5.40;;;3.73;;
1679;SDS011;838;51.794;12.258;2023-08-24T07:46:57;4.40;;;3.07;;
1679;SDS011;838;51.794;12.258;2023-08-24T07:49:23;6.43;;;2.70;;
1679;SDS011;838;51.794;12.258;2023-08-24T07:51:48;4.87;;;2.80;;
1679;SDS011;838;51.794;12.258;2023-08-24T07:54:14;4.47;;;2.70;;
1679;SDS011;838;51.794;12.258;2023-08-24T07:56:40;3.73;;;1.90;;
1679;SDS011;838;51.794;12.258;2023-08-24T07:59:06;4.50;;;2.67;;
1679;SDS011;838;51.794;12.258;2023-08-24T08:01:32;4.10;;;2.70;;
1679;SDS011;838;51.794;12.258;2023-08-24T08:03:58;4.33;;;2.67;;
1679;SDS011;838;51.794;12.258;2023-08-24T08:06:25;3.67;;;2.87;;
1679;SDS011;838;51.794;12.258;2023-08-24T08:08:52;5.40;;;2.70;;
1679;SDS011;838;51.794;12.258;2023-08-24T08:11:18;3.93;;;2.60;;
1679;SDS011;838;51.794;12.258;2023-08-24T08:13:43;4.77;;;2.67;;
1679;SDS011;838;51.794;12.258;2023-08-24T08:16:09;2.80;;;1.63;;
1679;SDS011;838;51.794;12.258;2023-08-24T08:18:35;3.53;;;2.30;;
1679;SDS011;838;51.794;12.258;2023-08-24T08:21:08;4.40;;;3.60;;
1679;SDS011;838;51.794;12.258;2023-08-24T08:23:35;4.63;;;2.40;;
1679;SDS011;838;51.794;12.258;2023-08-24T08:26:01;4.70;;;2.60;;
1679;SDS011;838;51.794;12.258;2023-08-24T08:28:26;4.30;;;2.40;;
1679;SDS011;838;51.794;12.258;2023-08-24T08:30:52;4.27;;;2.40;;
1679;SDS011;838;51.794;12.258;2023-08-24T08:33:18;3.80;;;2.40;;
1679;SDS011;838;51.794;12.258;2023-08-24T08:35:44;4.57;;;3.23;;
1679;SDS011;838;51.794;12.258;2023-08-24T08:38:10;6.23;;;2.60;;
1679;SDS011;838;51.794;12.258;2023-08-24T08:40:36;5.40;;;3.00;;
1679;SDS011;838;51.794;12.258;2023-08-24T08:43:02;4.37;;;2.97;;
1679;SDS011;838;51.794;12.258;2023-08-24T08:45:28;3.70;;;2.57;;
1679;SDS011;838;51.794;12.258;2023-08-24T08:48:01;5.57;;;2.77;;
1679;SDS011;838;51.794;12.258;2023-08-24T08:50:31;4.07;;;2.90;;
1679;SDS011;838;51.794;12.258;2023-08-24T08:52:58;5.97;;;3.00;;
1679;SDS011;838;51.794;12.258;2023-08-24T08:55:24;5.43;;;3.37;;
1679;SDS011;838;51.794;12.258;2023-08-24T08:57:51;8.07;;;3.13;;
1679;SDS011;838;51.794;12.258;2023-08-24T09:00:19;4.30;;;3.40;;
1679;SDS011;838;51.794;12.258;2023-08-24T09:02:45;4.10;;;3.17;;
1679;SDS011;838;51.794;12.258;2023-08-24T09:05:14;9.10;;;4.10;;
1679;SDS011;838;51.794;12.258;2023-08-24T09:07:40;7.03;;;3.37;;
1679;SDS011;838;51.794;12.258;2023-08-24T09:10:07;6.33;;;3.80;;
1679;SDS011;838;51.794;12.258;2023-08-24T09:12:33;5.10;;;3.10;;
1679;SDS011;838;51.794;12.258;2023-08-24T09:14:59;4.13;;;3.00;;
1679;SDS011;838;51.794;12.258;2023-08-24T09:17:28;5.10;;;3.10;;
1679;SDS011;838;51.794;12.258;2023-08-24T09:19:58;6.30;;;3.37;;
1679;SDS011;838;51.794;12.258;2023-08-24T09:22:24;4.70;;;2.90;;
1679;SDS011;838;51.794;12.258;2023-08-24T09:24:50;4.60;;;2.87;;
1679;SDS011;838;51.794;12.258;2023-08-24T09:27:17;5.77;;;3.30;;
1679;SDS011;838;51.794;12.258;2023-08-24T09:29:47;9.47;;;3.43;;
1679;SDS011;838;51.794;12.258;2023-08-24T09:32:30;4.50;;;2.90;;
1679;SDS011;838;51.794;12.258;2023-08-24T09:35:03;6.87;;;2.97;;
1679;SDS011;838;51.794;12.258;2023-08-24T09:37:36;4.50;;;3.03;;
1679;SDS011;838;51.794;12.258;2023-08-24T09:40:03;6.60;;;3.07;;
1679;SDS011;838;51.794;12.258;2023-08-24T09:42:36;3.73;;;2.80;;
1679;SDS011;838;51.794;12.258;2023-08-24T09:45:07;6.83;;;2.77;;
1679;SDS011;838;51.794;12.258;2023-08-24T09:47:37;4.70;;;2.57;;
1679;SDS011;838;51.794;12.258;2023-08-24T09:50:03;4.27;;;3.07;;
1679;SDS011;838;51.794;12.258;2023-08-24T09:52:33;5.30;;;3.10;;
1679;SDS011;838;51.794;12.258;2023-08-24T09:55:05;4.00;;;2.70;;
1679;SDS011;838;51.794;12.258;2023-08-24T09:57:37;4.80;;;2.50;;
1679;SDS011;838;51.794;12.258;2023-08-24T10:00:05;4.30;;;3.27;;
1679;SDS011;838;51.794;12.258;2023-08-24T10:02:37;4.37;;;2.67;;
1679;SDS011;838;51.794;12.258;2023-08-24T10:05:14;5.90;;;2.57;;
1679;SDS011;838;51.794;12.258;2023-08-24T10:07:46;6.43;;;3.70;;
1679;SDS011;838;51.794;12.258;2023-08-24T10:10:17;4.10;;;3.10;;
1679;SDS011;838;51.794;12.258;2023-08-24T10:12:47;4.97;;;3.10;;
1679;SDS011;838;51.794;12.258;2023-08-24T10:15:15;5.40;;;3.10;;
1679;SDS011;838;51.794;12.258;2023-08-24T10:17:43;5.00;;;3.13;;
1679;SDS011;838;51.794;12.258;2023-08-24T10:20:10;4.43;;;3.00;;
1679;SDS011;838;51.794;12.258;2023-08-24T10:22:36;4.17;;;2.43;;
1679;SDS011;838;51.794;12.258;2023-08-24T10:25:07;4.73;;;2.70;;
1679;SDS011;838;51.794;12.258;2023-08-24T10:27:37;3.73;;;2.50;;
1679;SDS011;838;51.794;12.258;2023-08-24T10:30:09;4.07;;;2.47;;
1679;SDS011;838;51.794;12.258;2023-08-24T10:32:36;3.97;;;2.37;;
1679;SDS011;838;51.794;12.258;2023-08-24T10:35:03;4.20;;;2.40;;
1679;SDS011;838;51.794;12.258;2023-08-24T10:37:29;5.33;;;2.50;;
1679;SDS011;838;51.794;12.258;2023-08-24T10:39:56;4.33;;;2.50;;
1679;SDS011;838;51.794;12.258;2023-08-24T10:42:21;4.40;;;2.73;;
1679;SDS011;838;51.794;12.258;2023-08-24T10:44:47;5.63;;;2.97;;
1679;SDS011;838;51.794;12.258;2023-08-24T10:52:23;4.57;;;2.63;;
1679;SDS011;838;51.794;12.258;2023-08-24T10:54:50;3.80;;;2.60;;
1679;SDS011;838;51.794;12.258;2023-08-24T10:57:27;5.50;;;2.40;;
1679;SDS011;838;51.794;12.258;2023-08-24T11:02:41;4.90;;;2.63;;
1679;SDS011;838;51.794;12.258;2023-08-24T11:05:15;3.50;;;2.00;;
1679;SDS011;838;51.794;12.258;2023-08-24T11:07:56;4.10;;;3.07;;
1679;SDS011;838;51.794;12.258;2023-08-24T11:10:25;4.23;;;2.27;;
1679;SDS011;838;51.794;12.258;2023-08-24T11:21:01;4.60;;;2.50;;
1679;SDS011;838;51.794;12.258;2023-08-24T11:23:28;4.63;;;2.47;;
1679;SDS011;838;51.794;12.258;2023-08-24T11:25:55;3.63;;;2.40;;
1679;SDS011;838;51.794;12.258;2023-08-24T11:28:23;3.17;;;2.10;;
1679;SDS011;838;51.794;12.258;2023-08-24T11:30:51;8.90;;;2.50;;
1679;SDS011;838;51.794;12.258;2023-08-24T11:33:26;3.10;;;2.20;;
1679;SDS011;838;51.794;12.258;2023-08-24T11:35:54;3.73;;;2.60;;
1679;SDS011;838;51.794;12.258;2023-08-24T11:38:20;5.37;;;2.30;;
1679;SDS011;838;51.794;12.258;2023-08-24T11:40:46;3.80;;;2.57;;
1679;SDS011;838;51.794;12.258;2023-08-24T11:43:12;6.00;;;2.97;;
1679;SDS011;838;51.794;12.258;2023-08-24T11:45:37;3.13;;;1.83;;
1679;SDS011;838;51.794;12.258;2023-08-24T11:48:05;3.83;;;2.50;;
1679;SDS011;838;51.794;12.258;2023-08-24T11:50:32;5.50;;;2.67;;
1679;SDS011;838;51.794;12.258;2023-08-24T11:53:01;4.87;;;2.27;;
1679;SDS011;838;51.794;12.258;2023-08-24T11:55:27;4.53;;;2.20;;
1679;SDS011;838;51.794;12.258;2023-08-24T11:57:54;3.47;;;2.60;;
1679;SDS011;838;51.794;12.258;2023-08-24T12:00:21;3.70;;;2.50;;
1679;SDS011;838;51.794;12.258;2023-08-24T12:02:47;3.87;;;2.10;;
1679;SDS011;838;51.794;12.258;2023-08-24T12:05:23;4.90;;;2.20;;
1679;SDS011;838;51.794;12.258;2023-08-24T12:07:53;3.60;;;2.27;;
1679;SDS011;838;51.794;12.258;2023-08-24T12:10:20;4.80;;;2.10;;
1679;SDS011;838;51.794;12.258;2023-08-24T12:12:46;5.03;;;2.10;;
1679;SDS011;838;51.794;12.258;2023-08-24T12:15:16;3.67;;;1.93;;
1679;SDS011;838;51.794;12.258;2023-08-24T12:17:45;4.40;;;2.43;;
1679;SDS011;838;51.794;12.258;2023-08-24T12:20:19;3.50;;;2.37;;
1679;SDS011;838;51.794;12.258;2023-08-24T12:22:52;4.50;;;2.47;;
1679;SDS011;838;51.794;12.258;2023-08-24T12:25:21;4.83;;;2.37;;
1679;SDS011;838;51.794;12.258;2023-08-24T12:27:47;4.87;;;2.67;;
1679;SDS011;838;51.794;12.258;2023-08-24T12:30:13;4.33;;;2.63;;
1679;SDS011;838;51.794;12.258;2023-08-24T12:32:45;2.97;;;1.97;;
1679;SDS011;838;51.794;12.258;2023-08-24T12:35:13;4.00;;;2.10;;
1679;SDS011;838;51.794;12.258;2023-08-24T12:37:40;3.60;;;2.07;;
1679;SDS011;838;51.794;12.258;2023-08-24T12:40:06;4.63;;;2.30;;
1679;SDS011;838;51.794;12.258;2023-08-24T12:42:32;3.00;;;1.67;;
1679;SDS011;838;51.794;12.258;2023-08-24T12:44:58;4.90;;;2.70;;
1679;SDS011;838;51.794;12.258;2023-08-24T12:47:24;6.73;;;2.33;;
1679;SDS011;838;51.794;12.258;2023-08-24T12:49:50;3.70;;;2.33;;
1679;SDS011;838;51.794;12.258;2023-08-24T12:52:17;3.57;;;2.40;;
1679;SDS011;838;51.794;12.258;2023-08-24T12:54:43;4.70;;;2.50;;
1679;SDS011;838;51.794;12.258;2023-08-24T12:57:09;3.90;;;2.17;;
1679;SDS011;838;51.794;12.258;2023-08-24T12:59:37;3.20;;;2.27;;
1679;SDS011;838;51.794;12.258;2023-08-24T13:02:03;3.40;;;2.40;;
1679;SDS011;838;51.794;12.258;2023-08-24T13:04:29;5.17;;;3.47;;
1679;SDS011;838;51.794;12.258;2023-08-24T13:06:57;3.10;;;2.27;;
1679;SDS011;838;51.794;12.258;2023-08-24T13:09:23;4.70;;;2.50;;
1679;SDS011;838;51.794;12.258;2023-08-24T13:11:49;3.10;;;2.20;;
1679;SDS011;838;51.794;12.258;2023-08-24T13:14:15;4.93;;;2.57;;
1679;SDS011;838;51.794;12.258;2023-08-24T13:16:41;5.53;;;2.80;;
1679;SDS011;838;51.794;12.258;2023-08-24T13:19:06;3.43;;;2.30;;
1679;SDS011;838;51.794;12.258;2023-08-24T13:21:32;4.90;;;2.30;;
1679;SDS011;838;51.794;12.258;2023-08-24T13:23:58;3.37;;;2.40;;
1679;SDS011;838;51.794;12.258;2023-08-24T13:26:24;4.20;;;2.30;;
1679;SDS011;838;51.794;12.258;2023-08-24T13:28:50;3.70;;;2.20;;
1679;SDS011;838;51.794;12.258;2023-08-24T13:31:17;4.47;;;2.47;;
1679;SDS011;838;51.794;12.258;2023-08-24T13:33:43;3.20;;;1.90;;
1679;SDS011;838;51.794;12.258;2023-08-24T13:36:09;5.53;;;2.10;;
1679;SDS011;838;51.794;12.258;2023-08-24T13:38:35;4.20;;;2.13;;
1679;SDS011;838;51.794;12.258;2023-08-24T13:41:01;3.30;;;1.97;;
1679;SDS011;838;51.794;12.258;2023-08-24T13:43:28;3.60;;;2.00;;
1679;SDS011;838;51.794;12.258;2023-08-24T13:45:54;2.67;;;1.60;;
1679;SDS011;838;51.794;12.258;2023-08-24T13:48:20;4.47;;;2.13;;
1679;SDS011;838;51.794;12.258;2023-08-24T13:50:49;4.10;;;2.20;;
1679;SDS011;838;51.794;12.258;2023-08-24T13:53:17;2.90;;;1.90;;
1679;SDS011;838;51.794;12.258;2023-08-24T13:55:43;3.57;;;1.73;;
1679;SDS011;838;51.794;12.258;2023-08-24T13:58:08;3.30;;;1.83;;
1679;SDS011;838;51.794;12.258;2023-08-24T14:00:34;3.17;;;1.97;;
1679;SDS011;838;51.794;12.258;2023-08-24T14:03:00;2.63;;;1.50;;
1679;SDS011;838;51.794;12.258;2023-08-24T14:05:25;4.23;;;1.90;;
1679;SDS011;838;51.794;12.258;2023-08-24T14:07:51;3.80;;;2.50;;
1679;SDS011;838;51.794;12.258;2023-08-24T14:10:17;2.63;;;1.90;;
1679;SDS011;838;51.794;12.258;2023-08-24T14:12:43;3.13;;;1.97;;
1679;SDS011;838;51.794;12.258;2023-08-24T14:15:09;4.70;;;2.33;;
1679;SDS011;838;51.794;12.258;2023-08-24T14:17:36;3.73;;;2.10;;
1679;SDS011;838;51.794;12.258;2023-08-24T14:20:02;2.83;;;1.60;;
1679;SDS011;838;51.794;12.258;2023-08-24T14:22:29;4.10;;;2.10;;
1679;SDS011;838;51.794;12.258;2023-08-24T14:24:55;2.80;;;1.73;;
1679;SDS011;838;51.794;12.258;2023-08-24T14:27:20;5.10;;;2.20;;
1679;SDS011;838;51.794;12.258;2023-08-24T14:29:46;3.60;;;2.13;;
1679;SDS011;838;51.794;12.258;2023-08-24T14:32:12;4.07;;;2.23;;
1679;SDS011;838;51.794;12.258;2023-08-24T14:34:38;4.17;;;2.17;;
1679;SDS011;838;51.794;12.258;2023-08-24T14:37:03;9.60;;;2.27;;
1679;SDS011;838;51.794;12.258;2023-08-24T14:39:29;3.40;;;2.27;;
1679;SDS011;838;51.794;12.258;2023-08-24T14:41:55;3.60;;;2.00;;
1679;SDS011;838;51.794;12.258;2023-08-24T14:44:21;3.50;;;1.50;;
1679;SDS011;838;51.794;12.258;2023-08-24T14:46:47;3.60;;;1.60;;
1679;SDS011;838;51.794;12.258;2023-08-24T14:49:12;4.80;;;2.20;;
1679;SDS011;838;51.794;12.258;2023-08-24T14:51:43;3.10;;;2.10;;
1679;SDS011;838;51.794;12.258;2023-08-24T14:54:09;3.90;;;1.93;;
1679;SDS011;838;51.794;12.258;2023-08-24T14:56:38;5.13;;;2.23;;
1679;SDS011;838;51.794;12.258;2023-08-24T14:59:04;3.20;;;2.00;;
1679;SDS011;838;51.794;12.258;2023-08-24T15:01:29;4.23;;;2.23;;
1679;SDS011;838;51.794;12.258;2023-08-24T15:03:55;4.50;;;2.27;;
1679;SDS011;838;51.794;12.258;2023-08-24T15:06:20;2.87;;;1.90;;
1679;SDS011;838;51.794;12.258;2023-08-24T15:08:46;3.00;;;2.00;;
1679;SDS011;838;51.794;12.258;2023-08-24T15:11:13;5.40;;;2.03;;
1679;SDS011;838;51.794;12.258;2023-08-24T15:13:39;3.07;;;2.00;;
1679;SDS011;838;51.794;12.258;2023-08-24T15:16:05;4.20;;;2.27;;
1679;SDS011;838;51.794;12.258;2023-08-24T15:18:31;3.60;;;2.10;;
1679;SDS011;838;51.794;12.258;2023-08-24T15:20:56;4.03;;;2.00;;
1679;SDS011;838;51.794;12.258;2023-08-24T15:23:26;3.00;;;1.57;;
1679;SDS011;838;51.794;12.258;2023-08-24T15:25:54;4.07;;;2.33;;
1679;SDS011;838;51.794;12.258;2023-08-24T15:28:21;4.00;;;1.87;;
1679;SDS011;838;51.794;12.258;2023-08-24T15:30:47;4.10;;;2.60;;
1679;SDS011;838;51.794;12.258;2023-08-24T15:33:13;3.90;;;1.90;;
1679;SDS011;838;51.794;12.258;2023-08-24T15:35:40;4.00;;;2.00;;